Map

Track Data

SID SEASON NUMBER BASIN SUBBASIN NAME ISO_TIME NATURE LAT LON WMO_WIND WMO_PRES WMO_AGENCY TRACK_TYPE DIST2LAND LANDFALL IFLAG USA_AGENCY USA_ATCF_ID USA_LAT USA_LON USA_RECORD USA_STATUS USA_WIND USA_PRES USA_SSHS USA_R34_NE USA_R34_SE USA_R34_SW USA_R34_NW USA_R50_NE USA_R50_SE USA_R50_SW USA_R50_NW USA_R64_NE USA_R64_SE USA_R64_SW USA_R64_NW USA_POCI USA_ROCI USA_RMW USA_EYE TOKYO_LAT TOKYO_LON TOKYO_GRADE TOKYO_WIND TOKYO_PRES TOKYO_R50_DIR TOKYO_R50_LONG TOKYO_R50_SHORT TOKYO_R30_DIR TOKYO_R30_LONG TOKYO_R30_SHORT TOKYO_LAND CMA_LAT CMA_LON CMA_CAT CMA_WIND CMA_PRES HKO_LAT HKO_LON HKO_CAT HKO_WIND HKO_PRES NEWDELHI_LAT NEWDELHI_LON NEWDELHI_GRADE NEWDELHI_WIND NEWDELHI_PRES NEWDELHI_CI NEWDELHI_DP NEWDELHI_POCI REUNION_LAT REUNION_LON REUNION_TYPE REUNION_WIND REUNION_PRES REUNION_TNUM REUNION_CI REUNION_RMW REUNION_R34_NE REUNION_R34_SE REUNION_R34_SW REUNION_R34_NW REUNION_R50_NE REUNION_R50_SE REUNION_R50_SW REUNION_R50_NW REUNION_R64_NE REUNION_R64_SE REUNION_R64_SW REUNION_R64_NW BOM_LAT BOM_LON BOM_TYPE BOM_WIND BOM_PRES BOM_TNUM BOM_CI BOM_RMW BOM_R34_NE BOM_R34_SE BOM_R34_SW BOM_R34_NW BOM_R50_NE BOM_R50_SE BOM_R50_SW BOM_R50_NW BOM_R64_NE BOM_R64_SE BOM_R64_SW BOM_R64_NW BOM_ROCI BOM_POCI BOM_EYE BOM_POS_METHOD BOM_PRES_METHOD NADI_LAT NADI_LON NADI_CAT NADI_WIND NADI_PRES WELLINGTON_LAT WELLINGTON_LON WELLINGTON_WIND WELLINGTON_PRES DS824_LAT DS824_LON DS824_STAGE DS824_WIND DS824_PRES TD9636_LAT TD9636_LON TD9636_STAGE TD9636_WIND TD9636_PRES TD9635_LAT TD9635_LON TD9635_WIND TD9635_PRES TD9635_ROCI NEUMANN_LAT NEUMANN_LON NEUMANN_CLASS NEUMANN_WIND NEUMANN_PRES MLC_LAT MLC_LON MLC_CLASS MLC_WIND MLC_PRES USA_GUST BOM_GUST BOM_GUST_PER REUNION_GUST REUNION_GUST_PER USA_SEAHGT USA_SEARAD_NE USA_SEARAD_SE USA_SEARAD_SW USA_SEARAD_NW STORM_SPEED STORM_DIR
1874046S13079 1874 6 SI MM NOT_NAMED 1874-02-14 18:00:00 NR -12.8000 79.3000 main 2100 2100 __________O___ -1 -12.8000 79.3000 7 10 240
1874046S13079 1874 6 SI MM NOT_NAMED 1874-02-14 21:00:00 NR -13.0444 78.8695 main 2125 2125 __________P___ -1 -13.0444 78.8695 7 10 240
1874046S13079 1874 6 SI MM NOT_NAMED 1874-02-15 00:00:00 NR -13.2807 78.4509 main 2163 2163 __________P___ -1 -13.2807 78.4509 7 9 240
1874046S13079 1874 6 SI MM NOT_NAMED 1874-02-15 03:00:00 NR -13.5017 78.0567 main 2191 2191 __________P___ -1 -13.5017 78.0567 7 8 240
1874046S13079 1874 6 SI MM NOT_NAMED 1874-02-15 06:00:00 NR -13.7000 77.7000 main 2219 2201 __________O___ -1 -13.7000 77.7000 7 7 240
1874046S13079 1874 6 SI MM NOT_NAMED 1874-02-15 09:00:00 NR -13.8713 77.3903 main 2201 2166 __________P___ -1 -13.8713 77.3903 7 6 240
1874046S13079 1874 6 SI MM NOT_NAMED 1874-02-15 12:00:00 NR -14.0222 77.1247 main 2166 2138 __________P___ -1 -14.0222 77.1247 7 6 239
1874046S13079 1874 6 SI MM NOT_NAMED 1874-02-15 15:00:00 NR -14.1620 76.8967 main 2138 2114 __________P___ -1 -14.1620 76.8967 7 5 236
1874046S13079 1874 6 SI MM NOT_NAMED 1874-02-15 18:00:00 NR -14.3000 76.7000 main 2114 2090 __________O___ -1 -14.3000 76.7000 7 4 232
1874046S13079 1874 6 SI MM NOT_NAMED 1874-02-15 21:00:00 NR -14.4335 76.5331 main 2090 2072 __________P___ -1 -14.4335 76.5331 7 4 228
1874046S13079 1874 6 SI MM NOT_NAMED 1874-02-16 00:00:00 NR -14.5697 76.3920 main 2072 2058 __________P___ -1 -14.5697 76.3920 7 4 223
1874046S13079 1874 6 SI MM NOT_NAMED 1874-02-16 03:00:00 NR -14.7211 76.2550 main 2058 2030 __________P___ -1 -14.7211 76.2550 7 4 221
1874046S13079 1874 6 SI MM NOT_NAMED 1874-02-16 06:00:00 NR -14.9000 76.1000 main 2030 2002 __________O___ -1 -14.9000 76.1000 7 5 221
1874046S13079 1874 6 SI MM NOT_NAMED 1874-02-16 09:00:00 NR -15.1172 75.8926 main 2002 1974 __________P___ -1 -15.1172 75.8926 7 6 222
1874046S13079 1874 6 SI MM NOT_NAMED 1874-02-16 12:00:00 NR -15.3626 75.6651 main 1971 1933 __________P___ -1 -15.3626 75.6651 7 7 221
1874046S13079 1874 6 SI MM NOT_NAMED 1874-02-16 15:00:00 NR -15.6266 75.4300 main 1933 1902 __________P___ -1 -15.6266 75.4300 7 7 220
1874046S13079 1874 6 SI MM NOT_NAMED 1874-02-16 18:00:00 NR -15.9000 75.2000 main 1902 1875 __________O___ -1 -15.9000 75.2000 7 7 220
1874046S13079 1874 6 SI MM NOT_NAMED 1874-02-16 21:00:00 NR -16.1475 74.9684 main 1875 1845 __________P___ -1 -16.1475 74.9684 7 7 221
1874046S13079 1874 6 SI MM NOT_NAMED 1874-02-17 00:00:00 NR -16.4051 74.7476 main 1835 1815 __________P___ -1 -16.4051 74.7476 7 7 217
1874046S13079 1874 6 SI MM NOT_NAMED 1874-02-17 03:00:00 NR -16.6851 74.5529 main 1815 1786 __________P___ -1 -16.6851 74.5529 7 7 209
1874046S13079 1874 6 SI MM NOT_NAMED 1874-02-17 06:00:00 NR -17.0000 74.4000 main 1786 1768 __________O___ -1 -17.0000 74.4000 7 7 201
1874046S13079 1874 6 SI MM NOT_NAMED 1874-02-17 09:00:00 NR -17.3639 74.2746 main 1765 1747 __________P___ -1 -17.3639 74.2746 7 8 194
1874046S13079 1874 6 SI MM NOT_NAMED 1874-02-17 12:00:00 NR -17.7623 74.1954 main 1745 1736 __________P___ -1 -17.7623 74.1954 7 8 187
1874046S13079 1874 6 SI MM NOT_NAMED 1874-02-17 15:00:00 NR -18.1796 74.1685 main 1736 1729 __________P___ -1 -18.1796 74.1685 7 8 0
1874046S13079 1874 6 SI MM NOT_NAMED 1874-02-17 18:00:00 NR -18.6000 74.2000 main 1729 1722 __________O___ -1 -18.6000 74.2000 7 8 175
1874046S13079 1874 6 SI MM NOT_NAMED 1874-02-17 21:00:00 NR -19.0038 74.2561 main 1733 1729 __________P___ -1 -19.0038 74.2561 7 8 169
1874046S13079 1874 6 SI MM NOT_NAMED 1874-02-18 00:00:00 NR -19.4071 74.3729 main 1738 1735 __________P___ -1 -19.4071 74.3729 7 9 161
1874046S13079 1874 6 SI MM NOT_NAMED 1874-02-18 03:00:00 NR -19.8068 74.5533 main 1754 1753 __________P___ -1 -19.8068 74.5533 7 9 153
1874046S13079 1874 6 SI MM NOT_NAMED 1874-02-18 06:00:00 NR -20.2000 74.8000 main 1772 1771 __________O___ -1 -20.2000 74.8000 7 10 146
1874046S13079 1874 6 SI MM NOT_NAMED 1874-02-18 09:00:00 NR -20.6029 75.1218 main 1801 1801 __________P___ -1 -20.6029 75.1218 7 10 140
1874046S13079 1874 6 SI MM NOT_NAMED 1874-02-18 12:00:00 NR -20.9956 75.5040 main 1842 1842 __________P___ -1 -20.9956 75.5040 7 11 136
1874046S13079 1874 6 SI MM NOT_NAMED 1874-02-18 15:00:00 NR -21.3654 75.9093 main 1883 1883 __________P___ -1 -21.3654 75.9093 7 10 134
1874046S13079 1874 6 SI MM NOT_NAMED 1874-02-18 18:00:00 NR -21.7000 76.3000 main 1925 1925 __________O___ -1 -21.7000 76.3000 7 9 132
1874046S13079 1874 6 SI MM NOT_NAMED 1874-02-18 21:00:00 NR -21.9913 76.6463 main 1957 1957 __________P___ -1 -21.9913 76.6463 7 8 132
1874046S13079 1874 6 SI MM NOT_NAMED 1874-02-19 00:00:00 NR -22.2473 76.9528 main 1999 1999 __________P___ -1 -22.2473 76.9528 7 7 132
1874046S13079 1874 6 SI MM NOT_NAMED 1874-02-19 03:00:00 NR -22.4796 77.2328 main 2021 2021 __________P___ -1 -22.4796 77.2328 7 7 132
1874046S13079 1874 6 SI MM NOT_NAMED 1874-02-19 06:00:00 NR -22.7000 77.5000 main 2053 __________O___ -1 -22.7000 77.5000 7 7 132

About IBTrACS Database

This database is a web-friendly format of International Best Track Archive for Climate Stewardship (IBTrACS), a global best track data archive curated by NOAA dating back to 1842.

Updated: 2021-10-08